Time;durP1;ratioP1;P1;durP2;ratioP2;P2;SDS_P1;SDS_P2;PMS_P1;PMS_P2;Temp;Humidity;BMP_temperature;BMP_pressure;BME280_temperature;BME280_humidity;BME280_pressure;Samples;Min_cycle;Max_cycle;Signal;HPM_P1;HPM_P2
2021/04/10 00:00:45;;;;;;;9.40;7.18;;;5.90;99.90;;;;;;5070815;28;20040;-76
2021/04/10 00:03:11;;;;;;;19.33;7.10;;;5.80;99.90;;;;;;5071142;28;20412;-76
2021/04/10 00:05:37;;;;;;;18.20;9.52;;;5.50;99.90;;;;;;5072718;28;20074;-76
2021/04/10 00:08:03;;;;;;;21.60;11.57;;;5.30;99.90;;;;;;5072355;28;20565;-76
2021/04/10 00:10:30;;;;;;;26.95;12.93;;;5.00;99.90;;;;;;5072539;28;20165;-76
2021/04/10 00:12:57;;;;;;;21.92;11.00;;;4.90;99.90;;;;;;5072496;28;20549;-76
2021/04/10 00:15:23;;;;;;;41.45;22.50;;;4.90;99.90;;;;;;5070268;28;20029;-76
2021/04/10 00:17:49;;;;;;;19.75;11.82;;;5.10;99.90;;;;;;5065917;28;20028;-76
2021/04/10 00:20:18;;;;;;;18.58;9.40;;;5.20;99.90;;;;;;5058436;28;20035;-76
2021/04/10 00:22:45;;;;;;;15.90;8.47;;;5.20;99.90;;;;;;5060857;28;20024;-76
2021/04/10 00:25:12;;;;;;;16.70;9.98;;;5.30;99.90;;;;;;5072483;28;20099;-76
2021/04/10 00:27:38;;;;;;;16.85;8.55;;;5.50;99.90;;;;;;5070920;28;20074;-76
2021/04/10 00:30:09;;;;;;;12.90;7.20;;;5.50;99.90;;;;;;5071657;28;20369;-76
2021/04/10 00:32:34;;;;;;;10.45;5.60;;;5.50;99.90;;;;;;5053115;28;20024;-76
2021/04/10 00:35:00;;;;;;;11.52;5.00;;;5.30;99.90;;;;;;5052804;28;20036;-76
2021/04/10 00:37:26;;;;;;;11.35;6.50;;;5.10;99.90;;;;;;5069174;28;20029;-76
2021/04/10 00:39:52;;;;;;;11.35;5.75;;;5.00;99.90;;;;;;5066581;28;20021;-76
2021/04/10 00:42:18;;;;;;;17.25;8.60;;;5.00;99.90;;;;;;5070015;28;20029;-76
2021/04/10 00:44:43;;;;;;;13.57;6.53;;;5.10;99.90;;;;;;5071119;28;20021;-76
2021/04/10 00:47:09;;;;;;;9.60;5.20;;;5.40;99.90;;;;;;5071286;28;20086;-76
2021/04/10 00:49:35;;;;;;;11.38;4.55;;;5.60;99.90;;;;;;5070440;28;20028;-76
2021/04/10 00:52:01;;;;;;;12.75;5.93;;;5.30;99.90;;;;;;5067515;28;20036;-76
2021/04/10 00:54:28;;;;;;;8.82;4.75;;;5.30;99.90;;;;;;5052106;28;20029;-76
2021/04/10 00:56:54;;;;;;;12.18;4.07;;;5.20;99.90;;;;;;5068516;28;20047;-76
2021/04/10 00:59:20;;;;;;;7.47;4.30;;;5.10;99.90;;;;;;5069951;28;20035;-76
2021/04/10 01:01:46;;;;;;;10.13;5.20;;;5.10;99.90;;;;;;5071083;28;20025;-76
2021/04/10 01:04:13;;;;;;;10.02;3.65;;;4.90;99.90;;;;;;5058870;28;20403;-76
2021/04/10 01:06:39;;;;;;;7.28;3.60;;;4.90;99.90;;;;;;5069699;28;20032;-76
2021/04/10 01:09:05;;;;;;;8.25;3.88;;;4.90;99.90;;;;;;5071172;28;20029;-76
2021/04/10 01:12:17;;;;;;;8.35;3.90;;;4.70;99.90;;;;;;5070794;28;20411;-76
2021/04/10 01:14:52;;;;;;;8.02;4.53;;;4.70;99.90;;;;;;5060228;28;20027;-76
2021/04/10 01:17:24;;;;;;;6.30;3.75;;;4.70;99.90;;;;;;5067116;28;20036;-76
2021/04/10 01:19:56;;;;;;;7.60;3.40;;;4.70;99.90;;;;;;5054610;28;20059;-76
2021/04/10 01:22:31;;;;;;;7.68;3.65;;;4.80;99.90;;;;;;5071556;28;20024;-76
2021/04/10 01:25:09;;;;;;;11.70;4.53;;;4.80;99.90;;;;;;5071210;28;20206;-76
2021/04/10 01:27:41;;;;;;;7.90;4.15;;;4.80;99.90;;;;;;5070369;28;20052;-76
2021/04/10 01:30:23;;;;;;;8.02;4.10;;;4.70;99.90;;;;;;5068632;28;20024;-76
2021/04/10 01:33:07;;;;;;;8.93;3.17;;;4.80;99.90;;;;;;5051054;28;20051;-76
2021/04/10 01:35:44;;;;;;;4.90;3.15;;;4.90;99.90;;;;;;5070671;28;20040;-76
2021/04/10 01:38:13;;;;;;;6.47;3.30;;;4.90;99.90;;;;;;5070558;28;20052;-76
2021/04/10 01:40:41;;;;;;;5.90;3.35;;;4.90;99.90;;;;;;5071013;28;20025;-76
2021/04/10 01:43:08;;;;;;;4.82;3.25;;;4.90;99.90;;;;;;5071172;28;20029;-76
2021/04/10 01:45:36;;;;;;;7.97;4.18;;;4.80;99.90;;;;;;5070626;28;20017;-76
2021/04/10 01:48:09;;;;;;;4.18;3.10;;;4.70;99.90;;;;;;5069171;28;20071;-76
2021/04/10 01:50:36;;;;;;;5.50;2.90;;;4.80;99.90;;;;;;5070754;28;20531;-76
2021/04/10 01:53:03;;;;;;;6.78;3.15;;;4.70;99.90;;;;;;5071263;28;20036;-76
2021/04/10 01:55:29;;;;;;;8.77;3.35;;;4.60;99.90;;;;;;5071231;28;20028;-76
2021/04/10 01:57:55;;;;;;;7.60;2.90;;;4.50;99.90;;;;;;5070314;28;20033;-76
2021/04/10 02:00:24;;;;;;;11.30;3.83;;;4.50;99.90;;;;;;5067858;28;20079;-76
2021/04/10 02:02:51;;;;;;;7.97;3.17;;;4.60;99.90;;;;;;5069249;28;20041;-76
2021/04/10 02:05:17;;;;;;;13.27;3.20;;;4.50;99.90;;;;;;5068812;28;20024;-76
2021/04/10 02:07:46;;;;;;;7.03;3.13;;;4.50;99.90;;;;;;5066015;28;20099;-76
2021/04/10 02:10:17;;;;;;;7.85;3.67;;;4.50;99.90;;;;;;5064046;28;20369;-76
2021/04/10 02:12:47;;;;;;;6.75;3.70;;;4.50;99.90;;;;;;5073468;28;20025;-76
2021/04/10 02:15:13;;;;;;;3.65;2.45;;;4.40;99.90;;;;;;5070634;28;20469;-76
2021/04/10 02:17:39;;;;;;;6.18;2.78;;;4.30;99.90;;;;;;5069172;28;20029;-76
2021/04/10 02:20:10;;;;;;;12.75;6.05;;;4.10;99.90;;;;;;5070753;28;20358;-76
2021/04/10 02:22:37;;;;;;;13.60;4.95;;;4.10;99.90;;;;;;5067608;28;20504;-76
2021/04/10 02:25:05;;;;;;;23.40;9.55;;;4.30;99.90;;;;;;5065143;28;20481;-76
2021/04/10 02:27:30;;;;;;;20.45;9.13;;;4.40;99.90;;;;;;5063206;28;20039;-76
2021/04/10 02:29:58;;;;;;;6.95;4.07;;;4.60;99.90;;;;;;5059980;28;20021;-76
2021/04/10 02:32:34;;;;;;;14.23;5.47;;;4.40;99.90;;;;;;5065234;28;20384;-76
2021/04/10 02:35:13;;;;;;;13.88;5.68;;;4.30;99.90;;;;;;5069733;28;20025;-76
2021/04/10 02:37:40;;;;;;;15.50;6.65;;;4.20;99.90;;;;;;5074430;28;20021;-76
2021/04/10 02:40:07;;;;;;;21.15;8.15;;;4.10;99.90;;;;;;5073061;28;20025;-76
2021/04/10 02:42:37;;;;;;;19.65;8.43;;;4.10;99.90;;;;;;5067547;28;20016;-76
2021/04/10 02:45:04;;;;;;;;;;;4.10;99.90;;;;;;5073382;28;20403;-76
2021/04/10 02:47:32;;;;;;;18.25;8.07;;;4.00;99.90;;;;;;5073669;28;19909;-76
2021/04/10 02:50:01;;;;;;;17.48;7.65;;;4.20;99.90;;;;;;5072543;28;20033;-76
2021/04/10 02:52:39;;;;;;;17.08;8.32;;;4.30;99.90;;;;;;5070977;28;20032;-76
2021/04/10 02:55:07;;;;;;;25.30;9.90;;;4.20;99.90;;;;;;5058688;28;20804;-76
2021/04/10 02:57:33;;;;;;;20.15;8.18;;;4.10;99.90;;;;;;5073592;28;20024;-76
2021/04/10 03:00:03;;;;;;;19.27;8.90;;;4.10;99.90;;;;;;5068027;28;20044;-76
2021/04/10 03:02:30;;;;;;;28.45;10.05;;;4.00;99.90;;;;;;5061348;28;20085;-76
2021/04/10 03:04:57;;;;;;;32.97;10.88;;;3.70;99.90;;;;;;5063537;28;20473;-76
2021/04/10 03:07:23;;;;;;;46.72;19.23;;;3.70;99.90;;;;;;5072171;28;20046;-76
2021/04/10 03:09:50;;;;;;;78.13;31.45;;;3.80;99.90;;;;;;5068184;28;20028;-76
2021/04/10 03:12:17;;;;;;;63.80;22.77;;;3.90;99.90;;;;;;5073416;28;20500;-76
2021/04/10 03:14:44;;;;;;;36.95;21.17;;;3.90;99.90;;;;;;5059427;28;20524;-76
2021/04/10 03:17:19;;;;;;;55.72;15.77;;;4.00;99.90;;;;;;5073505;28;20029;-76
2021/04/10 03:19:46;;;;;;;31.17;13.68;;;4.10;99.90;;;;;;5062948;28;20420;-76
2021/04/10 03:22:13;;;;;;;32.33;8.25;;;4.20;99.90;;;;;;5061748;28;20040;-76
2021/04/10 03:24:39;;;;;;;8.77;5.22;;;4.10;99.90;;;;;;5053613;28;20558;-76
2021/04/10 03:27:06;;;;;;;9.60;6.32;;;4.30;99.90;;;;;;5067658;28;20523;-76
2021/04/10 03:29:33;;;;;;;9.32;6.53;;;4.40;99.90;;;;;;5072175;28;20815;-76
2021/04/10 03:32:00;;;;;;;8.40;6.50;;;4.40;99.90;;;;;;5072157;28;20021;-76
2021/04/10 03:34:26;;;;;;;8.93;6.65;;;4.30;99.90;;;;;;5073604;28;20548;-76
2021/04/10 03:36:55;;;;;;;10.77;5.70;;;4.10;99.90;;;;;;5072200;28;20143;-76
2021/04/10 03:39:21;;;;;;;9.57;6.03;;;3.90;99.90;;;;;;5063754;28;20035;-76
2021/04/10 03:41:47;;;;;;;14.75;7.07;;;3.70;99.90;;;;;;5073139;28;20120;-76
2021/04/10 03:44:12;;;;;;;6.25;5.63;;;3.70;99.90;;;;;;5072694;28;20115;-76
2021/04/10 03:46:38;;;;;;;7.30;4.88;;;3.90;99.90;;;;;;5070138;28;20036;-76
2021/04/10 03:49:05;;;;;;;5.90;4.55;;;4.00;99.90;;;;;;5073177;28;20099;-76
2021/04/10 03:51:31;;;;;;;4.80;4.28;;;3.90;99.90;;;;;;5073254;28;20051;-76
2021/04/10 03:53:58;;;;;;;6.28;4.13;;;3.80;99.90;;;;;;5072736;28;20078;-76
2021/04/10 03:56:23;;;;;;;24.55;6.30;;;3.90;99.90;;;;;;5072585;28;20094;-76
2021/04/10 03:58:49;;;;;;;10.35;6.82;;;3.80;99.90;;;;;;5072252;28;20488;-76
2021/04/10 04:01:15;;;;;;;13.43;7.70;;;3.50;99.90;;;;;;5070647;28;20028;-76
2021/04/10 04:03:41;;;;;;;11.73;6.90;;;3.50;99.90;;;;;;5072695;28;20031;-76
2021/04/10 04:06:06;;;;;;;5.90;5.30;;;3.60;99.90;;;;;;5071674;28;20024;-76
2021/04/10 04:08:32;;;;;;;6.78;4.72;;;3.80;99.90;;;;;;5072324;28;20017;-76
2021/04/10 04:10:58;;;;;;;9.50;5.43;;;3.80;99.90;;;;;;5053876;28;20017;-76
2021/04/10 04:13:24;;;;;;;5.97;3.88;;;3.80;99.90;;;;;;5052442;28;20052;-76
2021/04/10 04:15:49;;;;;;;6.80;4.00;;;3.70;99.90;;;;;;5060790;28;20396;-76
2021/04/10 04:18:15;;;;;;;6.70;3.60;;;3.60;99.90;;;;;;5054409;28;20087;-76
2021/04/10 04:20:41;;;;;;;28.13;4.93;;;3.70;99.90;;;;;;5071348;28;20104;-76
2021/04/10 04:23:07;;;;;;;29.90;4.40;;;3.50;99.90;;;;;;5070930;28;20028;-76
2021/04/10 04:25:32;;;;;;;22.02;5.88;;;3.20;99.90;;;;;;5069220;28;20020;-76
2021/04/10 04:28:00;;;;;;;28.90;5.90;;;3.00;99.90;;;;;;5060224;28;20036;-76
2021/04/10 04:30:26;;;;;;;27.98;6.68;;;3.10;99.90;;;;;;5064005;28;20066;-76
2021/04/10 04:32:53;;;;;;;35.28;7.20;;;3.30;99.90;;;;;;5066070;28;20412;-76
2021/04/10 04:35:19;;;;;;;57.63;6.40;;;3.40;99.90;;;;;;5069842;28;20032;-76
2021/04/10 04:37:45;;;;;;;44.70;5.57;;;3.40;99.90;;;;;;5068330;28;20142;-76
2021/04/10 04:40:12;;;;;;;39.55;6.00;;;3.40;99.90;;;;;;5066825;28;20025;-76
2021/04/10 04:42:38;;;;;;;52.70;5.78;;;3.40;99.90;;;;;;5068893;28;20070;-76
2021/04/10 04:45:05;;;;;;;83.82;6.05;;;3.50;99.90;;;;;;5057756;28;20515;-76
2021/04/10 04:47:32;;;;;;;73.30;4.68;;;3.40;99.90;;;;;;5058008;28;20024;-76
2021/04/10 04:49:58;;;;;;;82.88;4.93;;;3.30;99.90;;;;;;5068054;28;20025;-76
2021/04/10 04:52:23;;;;;;;43.30;3.60;;;3.40;99.90;;;;;;5069961;28;20035;-76
2021/04/10 04:54:49;;;;;;;34.90;3.72;;;3.40;99.90;;;;;;5071873;28;20099;-76
2021/04/10 04:57:15;;;;;;;17.88;3.78;;;3.40;99.90;;;;;;5065911;28;20037;-76
2021/04/10 04:59:41;;;;;;;21.30;4.32;;;3.30;99.90;;;;;;5055102;28;20033;-76
2021/04/10 05:02:07;;;;;;;8.63;3.28;;;3.30;99.90;;;;;;5069504;28;20040;-76
2021/04/10 05:04:32;;;;;;;15.30;5.13;;;3.10;99.90;;;;;;5066963;28;20029;-76
2021/04/10 05:06:58;;;;;;;32.03;5.10;;;3.10;99.90;;;;;;5071732;28;20032;-76
2021/04/10 05:09:24;;;;;;;32.38;5.00;;;3.30;99.90;;;;;;5067960;28;20029;-76
2021/04/10 05:11:50;;;;;;;46.03;5.15;;;3.40;99.90;;;;;;5069349;28;20122;-76
2021/04/10 05:14:16;;;;;;;59.33;6.03;;;3.40;99.90;;;;;;5071162;28;20032;-76
2021/04/10 05:16:42;;;;;;;114.35;6.68;;;3.30;99.90;;;;;;5062659;28;20025;-76
2021/04/10 05:19:09;;;;;;;139.40;7.15;;;3.20;99.90;;;;;;5071100;28;20032;-76
2021/04/10 05:21:34;;;;;;;98.55;5.80;;;3.30;99.90;;;;;;5062225;28;20103;-76
2021/04/10 05:24:00;;;;;;;74.00;5.70;;;3.20;99.90;;;;;;5069523;28;20467;-76
2021/04/10 05:26:26;;;;;;;53.45;4.70;;;3.20;99.90;;;;;;5063312;28;20416;-76
2021/04/10 05:28:52;;;;;;;55.45;4.57;;;3.00;99.90;;;;;;5068056;28;20045;-76
2021/04/10 05:31:18;;;;;;;72.43;5.15;;;2.80;99.90;;;;;;5070231;28;20036;-76
2021/04/10 05:33:44;;;;;;;33.83;4.93;;;2.80;99.90;;;;;;5067992;28;20078;-76
2021/04/10 05:36:10;;;;;;;37.30;7.70;;;2.80;99.90;;;;;;5069466;28;20028;-76
2021/04/10 05:38:36;;;;;;;17.67;7.05;;;2.90;99.90;;;;;;5072282;28;20028;-76
2021/04/10 05:41:01;;;;;;;12.38;9.25;;;3.00;99.90;;;;;;5066826;28;20047;-76
2021/04/10 05:43:28;;;;;;;20.98;8.82;;;3.10;99.90;;;;;;5075045;28;20082;-76
2021/04/10 05:45:54;;;;;;;17.08;6.95;;;3.40;99.90;;;;;;5070128;28;20100;-76
2021/04/10 05:48:19;;;;;;;10.25;7.05;;;3.30;99.90;;;;;;5058523;28;20108;-76
2021/04/10 05:50:45;;;;;;;7.15;5.00;;;3.30;99.90;;;;;;5071481;28;20037;-76
2021/04/10 05:53:11;;;;;;;6.80;5.80;;;3.40;99.90;;;;;;5075254;28;20522;-76
2021/04/10 05:55:37;;;;;;;7.90;5.60;;;3.10;99.90;;;;;;5066468;28;20387;-76
2021/04/10 05:58:03;;;;;;;6.47;5.65;;;3.20;99.90;;;;;;5074449;28;20032;-76
2021/04/10 06:00:29;;;;;;;9.85;4.68;;;3.30;99.90;;;;;;5071611;28;20166;-76
2021/04/10 06:02:56;;;;;;;5.63;4.68;;;3.40;99.90;;;;;;5062893;28;20033;-76
2021/04/10 06:05:22;;;;;;;4.63;4.00;;;3.20;99.90;;;;;;5069549;28;20033;-76
2021/04/10 06:07:49;;;;;;;4.75;4.30;;;3.40;99.90;;;;;;5056396;28;20047;-76
2021/04/10 06:10:16;;;;;;;5.63;4.32;;;3.50;99.90;;;;;;5069591;28;20149;-76
2021/04/10 06:12:42;;;;;;;5.90;4.35;;;3.50;99.90;;;;;;5070105;28;20036;-76
2021/04/10 06:15:13;;;;;;;5.55;4.15;;;3.60;99.90;;;;;;5065014;28;20051;-76
2021/04/10 06:17:39;;;;;;;3.60;3.15;;;3.80;99.90;;;;;;5063550;28;20028;-76
2021/04/10 06:20:07;;;;;;;3.85;3.15;;;4.00;99.90;;;;;;5067034;28;20472;-76
2021/04/10 06:22:33;;;;;;;2.88;2.67;;;3.90;99.90;;;;;;5068896;28;20025;-76
2021/04/10 06:24:58;;;;;;;2.60;2.40;;;3.50;99.90;;;;;;5060766;28;20016;-76
2021/04/10 06:27:24;;;;;;;4.28;3.00;;;3.50;99.90;;;;;;5073247;28;20109;-76
2021/04/10 06:29:50;;;;;;;4.05;3.42;;;3.90;99.90;;;;;;5073836;28;20386;-76
2021/04/10 06:32:15;;;;;;;3.75;3.40;;;4.00;99.90;;;;;;5068952;28;20038;-76
2021/04/10 06:34:41;;;;;;;3.55;3.25;;;4.20;99.90;;;;;;5066280;28;20516;-76
2021/04/10 06:37:07;;;;;;;3.13;2.90;;;4.30;99.90;;;;;;5072079;28;20119;-76
2021/04/10 06:39:33;;;;;;;3.58;3.28;;;4.30;99.90;;;;;;5070322;28;20024;-76
2021/04/10 06:42:00;;;;;;;3.53;3.05;;;4.50;99.90;;;;;;5059727;28;20107;-76
2021/04/10 06:44:26;;;;;;;3.75;3.33;;;4.60;99.90;;;;;;5073372;28;20032;-76
2021/04/10 06:46:56;;;;;;;4.18;3.30;;;4.80;99.90;;;;;;5065970;28;20020;-76
2021/04/10 06:49:24;;;;;;;6.78;4.53;;;5.00;99.90;;;;;;5070693;28;20021;-76
2021/04/10 06:51:51;;;;;;;3.10;2.80;;;5.10;99.90;;;;;;5064768;28;20028;-76
2021/04/10 06:54:20;;;;;;;3.20;2.90;;;5.10;99.90;;;;;;5066657;28;20388;-76
2021/04/10 06:57:03;;;;;;;3.20;2.75;;;5.20;99.90;;;;;;5061766;28;20396;-76
2021/04/10 06:59:49;;;;;;;4.25;3.85;;;5.30;99.90;;;;;;5060593;28;20033;-76
2021/04/10 07:02:16;;;;;;;4.65;2.92;;;5.50;99.90;;;;;;5058009;28;20028;-76
2021/04/10 07:04:42;;;;;;;8.98;4.18;;;5.60;99.90;;;;;;5061602;28;20031;-76
2021/04/10 07:07:09;;;;;;;7.78;4.35;;;5.80;99.90;;;;;;5063757;28;20116;-76
2021/04/10 07:09:36;;;;;;;4.00;2.50;;;6.20;99.90;;;;;;5065156;28;20025;-76
2021/04/10 07:12:05;;;;;;;4.68;1.80;;;6.50;99.90;;;;;;5063913;28;20500;-75
2021/04/10 07:14:31;;;;;;;2.45;2.03;;;7.10;99.90;;;;;;5064995;28;20028;-76
2021/04/10 07:16:57;;;;;;;6.20;1.85;;;7.30;99.90;;;;;;5064075;28;20036;-76
2021/04/10 07:19:26;;;;;;;6.45;2.38;;;7.50;99.90;;;;;;5061110;28;20535;-75
2021/04/10 07:22:13;;;;;;;6.30;2.40;;;7.70;99.90;;;;;;5067902;28;20085;-76
2021/04/10 07:24:50;;;;;;;2.90;1.95;;;7.90;99.90;;;;;;5064076;28;20032;-76
2021/04/10 07:27:24;;;;;;;6.95;2.42;;;8.10;99.90;;;;;;5070553;28;20412;-76
2021/04/10 07:29:52;;;;;;;11.98;6.13;;;8.40;99.90;;;;;;5071256;28;20028;-76
2021/04/10 07:32:34;;;;;;;4.35;1.40;;;8.70;99.90;;;;;;5057688;28;20033;-76
2021/04/10 07:35:12;;;;;;;4.93;2.20;;;8.90;99.90;;;;;;5065632;28;20424;-76
2021/04/10 07:37:43;;;;;;;3.67;1.50;;;9.00;99.90;;;;;;5059839;28;20029;-76
2021/04/10 07:40:10;;;;;;;14.38;3.25;;;9.10;99.90;;;;;;5053979;28;20029;-76
2021/04/10 07:42:40;;;;;;;2.40;1.45;;;9.30;99.90;;;;;;5067378;28;20374;-76
2021/04/10 07:45:21;;;;;;;;;;;9.40;99.90;;;;;;5065778;28;20539;-76
2021/04/10 07:47:47;;;;;;;5.22;1.73;;;9.60;99.90;;;;;;5073308;28;19927;-76
2021/04/10 07:50:13;;;;;;;2.70;1.80;;;9.80;99.90;;;;;;5072829;28;20030;-76
2021/04/10 07:52:39;;;;;;;5.70;5.30;;;9.80;99.40;;;;;;5070836;28;20081;-76
2021/04/10 07:55:06;;;;;;;17.17;15.77;;;9.90;98.20;;;;;;5061851;28;20124;-76
2021/04/10 07:57:31;;;;;;;3.80;1.90;;;10.00;96.80;;;;;;5072216;28;20059;-76
2021/04/10 07:59:59;;;;;;;3.83;3.00;;;10.20;96.40;;;;;;5069453;28;20481;-76
2021/04/10 08:02:32;;;;;;;20.35;18.42;;;10.50;95.90;;;;;;5064180;28;20036;-76
2021/04/10 08:05:00;;;;;;;56.72;51.42;;;10.70;94.50;;;;;;5062703;28;20098;-76
2021/04/10 08:07:29;;;;;;;26.60;23.80;;;10.90;93.10;;;;;;5061617;28;20121;-76
2021/04/10 08:10:06;;;;;;;9.88;9.00;;;11.10;92.00;;;;;;5060127;28;20508;-76
2021/04/10 08:12:35;;;;;;;5.03;4.47;;;11.30;92.40;;;;;;5065219;28;20028;-76
2021/04/10 08:15:03;;;;;;;5.00;3.90;;;11.30;91.10;;;;;;5068406;28;20504;-75
2021/04/10 08:17:42;;;;;;;7.15;3.10;;;11.10;92.40;;;;;;5062984;28;20036;-75
2021/04/10 08:20:29;;;;;;;3.83;3.50;;;11.00;92.00;;;;;;5069698;28;20025;-76
2021/04/10 08:23:21;;;;;;;5.15;3.80;;;10.90;91.50;;;;;;5066906;28;20032;-75
2021/04/10 08:25:47;;;;;;;8.20;2.67;;;10.90;91.30;;;;;;5065078;28;20028;-75
2021/04/10 08:28:18;;;;;;;6.68;2.80;;;10.90;91.90;;;;;;5066707;28;20044;-75
2021/04/10 08:30:45;;;;;;;3.85;1.90;;;10.50;92.30;;;;;;5068450;28;20397;-75
2021/04/10 08:33:10;;;;;;;4.68;1.80;;;10.40;94.80;;;;;;5073050;28;20021;-75
2021/04/10 08:35:37;;;;;;;3.97;2.17;;;10.20;95.80;;;;;;5062576;28;20044;-75
2021/04/10 08:38:05;;;;;;;4.07;2.20;;;10.20;96.60;;;;;;5071543;28;20036;-75
2021/04/10 08:40:34;;;;;;;5.53;2.38;;;10.50;96.70;;;;;;5058812;28;20036;-75
2021/04/10 08:43:00;;;;;;;3.08;2.20;;;10.60;95.90;;;;;;5060112;28;20502;-75
2021/04/10 08:45:32;;;;;;;7.15;1.95;;;10.70;95.30;;;;;;5073268;28;20396;-75
2021/04/10 08:48:06;;;;;;;4.53;1.88;;;10.80;95.70;;;;;;5070285;28;20028;-75
2021/04/10 08:50:37;;;;;;;3.25;1.73;;;10.90;95.10;;;;;;5063116;28;20036;-75
2021/04/10 08:53:03;;;;;;;;;;;11.10;94.30;;;;;;5063530;28;20031;-75
2021/04/10 08:55:30;;;;;;;3.78;1.88;;;11.40;94.10;;;;;;5065856;28;20387;-75
2021/04/10 08:57:56;;;;;;;3.63;1.45;;;11.50;93.10;;;;;;5065214;28;20023;-75
2021/04/10 09:00:26;;;;;;;2.30;1.58;;;11.80;91.00;;;;;;5061718;28;20115;-75
2021/04/10 09:02:58;;;;;;;5.32;2.15;;;12.20;90.70;;;;;;5068222;28;20024;-75
2021/04/10 09:05:44;;;;;;;4.88;2.25;;;12.60;89.00;;;;;;5068462;28;20488;-75
2021/04/10 09:08:21;;;;;;;5.70;2.65;;;12.60;85.30;;;;;;5068381;28;20036;-75
2021/04/10 09:10:48;;;;;;;6.60;2.33;;;13.10;84.40;;;;;;5070197;28;20492;-75
2021/04/10 09:13:14;;;;;;;5.28;2.25;;;13.30;83.10;;;;;;5068557;28;20385;-75
2021/04/10 09:15:40;;;;;;;8.77;2.40;;;13.70;81.50;;;;;;5070861;28;20027;-75
2021/04/10 09:18:07;;;;;;;7.38;2.08;;;14.60;79.00;;;;;;5067097;28;20111;-75
2021/04/10 09:20:45;;;;;;;6.80;2.10;;;14.70;78.90;;;;;;5061563;28;20033;-75
2021/04/10 09:23:29;;;;;;;4.38;2.20;;;14.20;80.80;;;;;;5070864;28;20021;-75
2021/04/10 09:26:15;;;;;;;3.03;1.67;;;13.40;82.80;;;;;;5070952;28;20039;-75
2021/04/10 09:28:56;;;;;;;3.40;1.80;;;13.40;82.70;;;;;;5053090;28;20126;-75
2021/04/10 09:31:40;;;;;;;3.08;1.60;;;14.10;82.20;;;;;;5070776;28;20033;-75
2021/04/10 09:34:26;;;;;;;3.47;1.70;;;14.80;79.80;;;;;;5066647;28;20086;-75
2021/04/10 09:36:51;;;;;;;3.78;1.95;;;15.00;77.10;;;;;;5063014;28;20037;-75
2021/04/10 09:40:04;;;;;;;4.50;2.08;;;14.40;78.50;;;;;;5060110;28;20029;-75
2021/04/10 09:42:37;;;;;;;4.30;2.10;;;14.20;81.50;;;;;;5058898;28;20411;-75
2021/04/10 09:45:31;;;;;;;5.32;1.90;;;13.90;81.20;;;;;;5068763;28;20021;-75
2021/04/10 09:48:02;;;;;;;7.78;1.70;;;13.80;81.50;;;;;;5065615;28;20028;-75
2021/04/10 09:50:39;;;;;;;3.97;2.05;;;13.50;83.00;;;;;;5067274;28;20017;-75
2021/04/10 09:53:13;;;;;;;3.03;1.60;;;13.70;84.50;;;;;;5065644;28;20508;-75
2021/04/10 09:55:47;;;;;;;2.35;1.40;;;13.70;83.00;;;;;;5070176;28;20032;-75
2021/04/10 09:58:15;;;;;;;3.47;1.70;;;13.70;83.20;;;;;;5069464;28;20085;-75
2021/04/10 10:00:51;;;;;;;1.33;1.15;;;13.60;81.90;;;;;;5069892;28;20025;-75
2021/04/10 10:03:22;;;;;;;2.45;1.30;;;13.70;84.90;;;;;;5064579;28;20036;-75
2021/04/10 10:05:50;;;;;;;3.10;1.58;;;13.70;85.20;;;;;;5070736;28;20507;-75
2021/04/10 10:08:18;;;;;;;1.73;1.38;;;13.70;83.60;;;;;;5070040;28;20025;-75
2021/04/10 10:10:46;;;;;;;8.00;1.90;;;13.40;85.00;;;;;;5071601;28;20028;-75
2021/04/10 10:13:17;;;;;;;3.10;1.08;;;13.50;86.40;;;;;;5070994;28;20043;-75
2021/04/10 10:15:48;;;;;;;3.05;1.38;;;13.30;86.20;;;;;;5071325;28;20111;-75
2021/04/10 10:18:25;;;;;;;7.53;1.50;;;13.30;87.80;;;;;;5071345;28;20052;-75
2021/04/10 10:21:19;;;;;;;1.70;1.23;;;13.40;86.60;;;;;;5054475;28;20017;-75
2021/04/10 10:24:03;;;;;;;1.33;1.23;;;13.50;87.00;;;;;;5071436;28;20060;-75
2021/04/10 10:26:36;;;;;;;2.63;1.10;;;13.60;84.60;;;;;;5072680;28;20052;-75
2021/04/10 10:29:07;;;;;;;3.00;1.40;;;13.90;84.60;;;;;;5074449;28;20075;-75
2021/04/10 10:31:43;;;;;;;4.47;1.92;;;13.90;84.00;;;;;;5071441;28;20411;-75
2021/04/10 10:34:11;;;;;;;1.15;0.93;;;14.20;84.20;;;;;;5072719;28;20488;-75
2021/04/10 10:36:40;;;;;;;2.78;0.93;;;14.40;83.00;;;;;;5073776;28;20036;-75
2021/04/10 10:39:09;;;;;;;3.47;1.10;;;14.30;83.10;;;;;;5072005;28;20028;-75
2021/04/10 10:41:44;;;;;;;1.35;0.98;;;14.40;81.30;;;;;;5074067;28;20043;-75
2021/04/10 10:44:10;;;;;;;3.20;0.98;;;14.50;82.10;;;;;;5072100;28;20023;-75
2021/04/10 10:46:37;;;;;;;4.63;1.40;;;14.40;83.30;;;;;;5068590;28;20094;-75
2021/04/10 10:49:10;;;;;;;1.60;0.93;;;14.70;83.00;;;;;;5070163;28;20029;-75
2021/04/10 10:51:38;;;;;;;3.22;1.08;;;14.60;82.00;;;;;;5073538;28;20106;-75
2021/04/10 10:54:05;;;;;;;3.58;0.90;;;14.60;82.30;;;;;;5073126;28;20381;-75
2021/04/10 10:56:32;;;;;;;1.70;0.90;;;14.70;80.30;;;;;;5073126;28;20522;-75
2021/04/10 10:59:00;;;;;;;6.25;1.50;;;15.10;79.10;;;;;;5069519;28;20020;-75
2021/04/10 11:01:31;;;;;;;1.45;1.10;;;15.50;79.10;;;;;;5073560;28;20021;-75
2021/04/10 11:04:05;;;;;;;;;;;16.10;76.80;;;;;;5071976;28;20029;-75
2021/04/10 11:06:44;;;;;;;2.67;0.90;;;15.90;75.80;;;;;;5073566;28;19912;-76
2021/04/10 11:09:19;;;;;;;3.03;1.60;;;16.10;76.70;;;;;;5065936;28;20029;-76
2021/04/10 11:11:47;;;;;;;4.68;1.25;;;15.80;76.00;;;;;;5064533;28;20119;-75
2021/04/10 11:14:23;;;;;;;1.48;0.85;;;15.80;76.60;;;;;;5073371;28;20033;-75
2021/04/10 11:16:50;;;;;;;0.95;0.70;;;15.80;76.10;;;;;;5072855;28;20040;-75
2021/04/10 11:19:25;;;;;;;1.20;1.10;;;15.70;76.40;;;;;;5065758;28;20436;-75
2021/04/10 11:21:52;;;;;;;3.15;1.30;;;16.10;76.60;;;;;;5072822;28;20028;-75
2021/04/10 11:24:18;;;;;;;1.90;1.52;;;16.50;74.10;;;;;;5071072;28;20025;-75
2021/04/10 11:26:51;;;;;;;2.70;1.20;;;16.40;73.40;;;;;;5071075;28;20032;-76
2021/04/10 11:29:31;;;;;;;1.75;1.20;;;16.40;73.50;;;;;;5070583;28;20082;-75
2021/04/10 11:32:14;;;;;;;;;;;17.30;71.20;;;;;;5070702;28;20027;-75
2021/04/10 11:34:49;;;;;;;1.20;0.82;;;17.60;68.80;;;;;;5071144;28;20287;-76
2021/04/10 11:37:20;;;;;;;2.22;1.55;;;17.30;69.20;;;;;;5066921;28;20032;-76
2021/04/10 11:39:51;;;;;;;2.75;1.15;;;17.20;70.30;;;;;;5065877;28;20033;-76
2021/04/10 11:42:37;;;;;;;;;;;17.20;69.50;;;;;;5066128;28;20024;-76
2021/04/10 11:45:08;;;;;;;4.53;1.27;;;17.70;68.40;;;;;;5065759;28;20007;-76
2021/04/10 11:47:38;;;;;;;2.25;1.10;;;17.50;66.90;;;;;;5069280;28;20025;-76
2021/04/10 11:50:15;;;;;;;5.00;1.30;;;17.40;67.60;;;;;;5069539;28;20029;-76
2021/04/10 11:52:43;;;;;;;6.07;1.15;;;17.30;69.50;;;;;;5068155;28;20029;-76
2021/04/10 11:55:10;;;;;;;2.65;1.65;;;17.60;68.20;;;;;;5063107;28;20021;-76
2021/04/10 11:57:40;;;;;;;2.55;1.05;;;18.40;68.70;;;;;;5070874;28;20482;-76
2021/04/10 12:00:11;;;;;;;2.03;1.37;;;19.00;65.30;;;;;;5055307;28;20044;-76
2021/04/10 12:02:39;;;;;;;2.28;1.05;;;18.30;66.20;;;;;;5058735;28;20294;-76
2021/04/10 12:05:24;;;;;;;1.98;1.10;;;18.00;67.50;;;;;;5062849;28;20028;-76
2021/04/10 12:08:25;;;;;;;1.23;0.75;;;17.70;66.60;;;;;;5061226;28;20027;-76
2021/04/10 12:10:55;;;;;;;1.73;1.08;;;17.70;68.90;;;;;;5080515;28;20479;-76
2021/04/10 12:13:23;;;;;;;2.72;1.00;;;17.20;67.60;;;;;;5076341;28;20471;-76
2021/04/10 12:16:01;;;;;;;2.05;1.27;;;17.50;69.10;;;;;;5065038;28;20122;-75
2021/04/10 12:18:28;;;;;;;2.13;1.17;;;17.70;67.00;;;;;;5059918;28;20032;-76
2021/04/10 12:20:56;;;;;;;2.55;1.50;;;17.30;67.00;;;;;;5062571;28;20051;-76
2021/04/10 12:23:23;;;;;;;2.30;1.00;;;17.40;67.70;;;;;;5058189;28;20518;-76
2021/04/10 12:25:50;;;;;;;1.60;1.10;;;18.00;68.10;;;;;;5066861;28;20081;-76
2021/04/10 12:28:18;;;;;;;2.40;1.50;;;17.70;65.20;;;;;;5059820;28;20500;-75
2021/04/10 12:30:44;;;;;;;3.25;0.77;;;17.60;66.20;;;;;;5065397;28;20151;-75
2021/04/10 12:33:10;;;;;;;3.97;1.80;;;17.60;67.90;;;;;;5069678;28;20462;-75
2021/04/10 12:35:37;;;;;;;2.60;1.30;;;18.00;66.20;;;;;;5064049;28;20109;-75
2021/04/10 12:38:03;;;;;;;2.95;1.10;;;17.40;66.30;;;;;;5056166;28;20039;-75
2021/04/10 12:40:29;;;;;;;1.45;1.02;;;17.90;66.50;;;;;;5069318;28;20024;-75
2021/04/10 12:42:55;;;;;;;1.83;0.98;;;17.40;67.40;;;;;;5070662;28;20100;-75
2021/04/10 12:45:21;;;;;;;8.32;1.33;;;17.50;67.60;;;;;;5057812;28;20136;-75
2021/04/10 12:47:47;;;;;;;2.15;0.77;;;17.70;66.40;;;;;;5051234;28;20538;-75
2021/04/10 12:50:20;;;;;;;2.80;0.90;;;17.50;66.80;;;;;;5062718;28;20434;-75
2021/04/10 12:52:46;;;;;;;1.67;0.90;;;17.70;68.10;;;;;;5063226;28;20024;-75
2021/04/10 12:55:14;;;;;;;2.60;1.20;;;17.90;67.30;;;;;;5066111;28;20392;-75
2021/04/10 12:57:40;;;;;;;2.40;1.35;;;17.50;66.50;;;;;;5062059;28;20025;-75
2021/04/10 13:00:08;;;;;;;3.38;1.20;;;17.30;68.20;;;;;;5070087;28;20029;-75
2021/04/10 13:02:34;;;;;;;1.75;1.20;;;17.30;67.50;;;;;;5062949;28;20052;-76